createdAt,value
2023-02-04T00:00:16.274Z,100.00
2023-02-04T00:02:43.315Z,100.00
2023-02-04T00:05:14.142Z,100.00
2023-02-04T00:07:41.517Z,100.00
2023-02-04T00:10:10.367Z,100.00
2023-02-04T00:12:37.280Z,100.00
2023-02-04T00:15:05.320Z,100.00
2023-02-04T00:17:32.235Z,100.00
2023-02-04T00:19:59.155Z,100.00
2023-02-04T00:22:28.218Z,100.00
2023-02-04T00:24:55.155Z,100.00
2023-02-04T00:27:22.375Z,100.00
2023-02-04T00:29:49.290Z,100.00
2023-02-04T00:32:16.322Z,100.00
2023-02-04T00:34:43.298Z,100.00
2023-02-04T00:37:10.240Z,100.00
2023-02-04T00:39:38.208Z,100.00
2023-02-04T00:42:06.883Z,100.00
2023-02-04T00:44:36.560Z,100.00
2023-02-04T00:47:04.228Z,100.00
2023-02-04T00:49:31.188Z,100.00
2023-02-04T00:51:58.145Z,100.00
2023-02-04T00:54:26.514Z,100.00
2023-02-04T00:56:53.688Z,100.00
2023-02-04T00:59:20.594Z,100.00
2023-02-04T01:01:47.512Z,100.00
2023-02-04T01:04:15.051Z,100.00
2023-02-04T01:06:42.007Z,100.00
2023-02-04T01:09:10.221Z,100.00
2023-02-04T01:11:37.555Z,100.00
2023-02-04T01:14:04.655Z,100.00
2023-02-04T01:16:32.258Z,100.00
2023-02-04T01:19:00.368Z,100.00
2023-02-04T01:21:27.326Z,100.00
2023-02-04T01:23:54.316Z,100.00
2023-02-04T01:26:21.658Z,100.00
2023-02-04T01:28:48.592Z,100.00
2023-02-04T01:31:16.238Z,100.00
2023-02-04T01:33:43.435Z,100.00
2023-02-04T01:36:11.884Z,100.00
2023-02-04T01:38:38.791Z,100.00
2023-02-04T01:41:06.356Z,100.00
2023-02-04T01:43:34.131Z,100.00
2023-02-04T01:46:02.578Z,100.00
2023-02-04T01:48:30.488Z,100.00
2023-02-04T01:51:26.928Z,100.00
2023-02-04T01:53:55.346Z,100.00
2023-02-04T01:56:26.758Z,100.00
2023-02-04T01:58:57.622Z,100.00
2023-02-04T02:01:46.659Z,100.00
2023-02-04T02:04:17.667Z,100.00
2023-02-04T02:06:52.446Z,100.00
2023-02-04T02:09:19.895Z,100.00
2023-02-04T02:11:47.067Z,100.00
2023-02-04T02:14:15.019Z,100.00
2023-02-04T02:16:42.072Z,100.00
2023-02-04T02:19:14.755Z,100.00
2023-02-04T02:21:55.024Z,100.00
2023-02-04T02:24:30.166Z,100.00
2023-02-04T02:27:01.332Z,100.00
2023-02-04T02:29:28.552Z,100.00
2023-02-04T02:31:59.883Z,100.00
2023-02-04T02:34:28.517Z,100.00
2023-02-04T02:36:57.009Z,100.00
2023-02-04T02:39:25.188Z,100.00
2023-02-04T02:41:52.920Z,100.00
2023-02-04T02:44:19.966Z,100.00
2023-02-04T02:46:46.935Z,100.00
2023-02-04T02:49:19.323Z,100.00
2023-02-04T02:51:48.730Z,100.00
2023-02-04T02:54:29.894Z,100.00
2023-02-04T02:57:00.491Z,100.00
2023-02-04T02:59:27.836Z,100.00
2023-02-04T03:02:01.526Z,100.00
2023-02-04T03:04:34.644Z,100.00
2023-02-04T03:07:03.342Z,100.00
2023-02-04T03:09:30.508Z,100.00
2023-02-04T03:11:57.459Z,100.00
2023-02-04T03:14:25.619Z,100.00
2023-02-04T03:16:54.406Z,100.00
2023-02-04T03:19:23.508Z,100.00
2023-02-04T03:21:50.523Z,100.00
2023-02-04T03:24:17.833Z,100.00
2023-02-04T03:26:44.905Z,100.00
2023-02-04T03:29:12.431Z,100.00
2023-02-04T03:31:39.514Z,100.00
2023-02-04T03:34:06.473Z,100.00
2023-02-04T03:36:33.437Z,100.00
2023-02-04T03:39:00.404Z,100.00
2023-02-04T03:41:27.306Z,100.00
2023-02-04T03:43:54.199Z,100.00
2023-02-04T03:46:23.616Z,100.00
2023-02-04T03:48:50.559Z,100.00
2023-02-04T03:51:17.536Z,100.00
2023-02-04T03:53:44.440Z,100.00
2023-02-04T03:56:11.363Z,100.00
2023-02-04T03:58:38.428Z,100.00
2023-02-04T04:01:05.468Z,100.00
2023-02-04T04:03:32.372Z,100.00
2023-02-04T04:05:59.259Z,100.00
2023-02-04T04:08:26.157Z,100.00
2023-02-04T04:10:53.024Z,100.00
2023-02-04T04:13:19.919Z,100.00
2023-02-04T04:15:46.851Z,100.00
2023-02-04T04:18:13.780Z,100.00
2023-02-04T04:20:40.685Z,100.00
2023-02-04T04:23:07.583Z,100.00
2023-02-04T04:25:34.551Z,100.00
2023-02-04T04:28:01.809Z,100.00
2023-02-04T04:30:28.828Z,100.00
2023-02-04T04:32:55.749Z,100.00
2023-02-04T04:35:22.694Z,100.00
2023-02-04T04:37:49.666Z,100.00
2023-02-04T04:40:16.554Z,100.00
2023-02-04T04:42:43.500Z,100.00
2023-02-04T04:45:11.640Z,100.00
2023-02-04T04:47:38.576Z,100.00
2023-02-04T04:50:05.803Z,100.00
2023-02-04T04:52:32.750Z,100.00
2023-02-04T04:54:59.677Z,100.00
2023-02-04T04:57:26.581Z,100.00
2023-02-04T04:59:53.495Z,100.00
2023-02-04T05:02:20.450Z,100.00
2023-02-04T05:04:47.374Z,100.00
2023-02-04T05:07:14.266Z,100.00
2023-02-04T05:09:41.403Z,100.00
2023-02-04T05:12:08.473Z,100.00
2023-02-04T05:14:35.479Z,100.00
2023-02-04T05:17:02.393Z,100.00
2023-02-04T05:19:29.325Z,100.00
2023-02-04T05:21:57.409Z,100.00
2023-02-04T05:24:24.368Z,100.00
2023-02-04T05:26:51.362Z,100.00
2023-02-04T05:29:18.245Z,100.00
2023-02-04T05:31:45.251Z,100.00
2023-02-04T05:34:12.167Z,100.00
2023-02-04T05:36:39.076Z,100.00
2023-02-04T05:39:06.051Z,100.00
2023-02-04T05:41:33.130Z,100.00
2023-02-04T05:44:00.108Z,100.00
2023-02-04T05:46:27.094Z,100.00
2023-02-04T05:48:54.042Z,100.00
2023-02-04T05:51:20.929Z,100.00
2023-02-04T05:53:47.885Z,100.00
2023-02-04T05:56:14.812Z,100.00
2023-02-04T05:58:41.850Z,100.00
2023-02-04T06:01:08.912Z,100.00
2023-02-04T06:03:35.972Z,100.00
2023-02-04T06:06:02.986Z,100.00
2023-02-04T06:08:29.894Z,100.00
2023-02-04T06:10:56.818Z,100.00
2023-02-04T06:13:24.031Z,100.00
2023-02-04T06:15:50.948Z,100.00
2023-02-04T06:18:17.966Z,100.00
2023-02-04T06:20:44.877Z,100.00
2023-02-04T06:23:11.752Z,100.00
2023-02-04T06:25:38.708Z,100.00
2023-02-04T06:28:05.658Z,100.00
2023-02-04T06:30:33.220Z,100.00
2023-02-04T06:33:00.362Z,100.00
2023-02-04T06:35:27.244Z,100.00
2023-02-04T06:37:54.148Z,100.00
2023-02-04T06:40:21.042Z,100.00
2023-02-04T06:42:48.094Z,100.00
2023-02-04T06:45:15.091Z,100.00
2023-02-04T06:47:42.098Z,100.00
2023-02-04T06:50:09.591Z,100.00
2023-02-04T06:52:37.173Z,100.00
2023-02-04T06:55:04.419Z,100.00
2023-02-04T06:57:31.448Z,100.00
2023-02-04T06:59:58.426Z,100.00
2023-02-04T07:02:25.370Z,100.00
2023-02-04T07:04:52.261Z,100.00
2023-02-04T07:07:19.187Z,100.00
2023-02-04T07:09:46.072Z,100.00
2023-02-04T07:12:14.374Z,100.00
2023-02-04T07:14:42.835Z,100.00
2023-02-04T07:17:09.836Z,100.00
2023-02-04T07:19:36.920Z,100.00
2023-02-04T07:22:05.036Z,100.00
2023-02-04T07:24:32.197Z,100.00
2023-02-04T07:26:59.748Z,100.00
2023-02-04T07:29:27.209Z,100.00
2023-02-04T07:31:54.658Z,100.00
2023-02-04T07:34:21.805Z,100.00
2023-02-04T07:36:48.925Z,100.00
2023-02-04T07:39:15.915Z,100.00
2023-02-04T07:41:42.780Z,100.00
2023-02-04T07:44:12.188Z,100.00
2023-02-04T07:46:39.130Z,100.00
2023-02-04T07:49:06.048Z,100.00
2023-02-04T07:51:33.180Z,100.00
2023-02-04T07:54:00.195Z,100.00
2023-02-04T07:56:27.112Z,100.00
2023-02-04T07:58:54.082Z,100.00
2023-02-04T08:01:21.039Z,100.00
2023-02-04T08:03:47.953Z,100.00
2023-02-04T08:06:14.860Z,100.00
2023-02-04T08:08:41.772Z,100.00
2023-02-04T08:11:08.745Z,100.00
2023-02-04T08:13:35.738Z,100.00
2023-02-04T08:16:02.757Z,100.00
2023-02-04T08:18:30.312Z,100.00
2023-02-04T08:20:59.032Z,100.00
2023-02-04T08:23:25.947Z,100.00
2023-02-04T08:25:52.870Z,100.00
2023-02-04T08:28:19.879Z,100.00
2023-02-04T08:30:46.948Z,100.00
2023-02-04T08:33:13.873Z,100.00
2023-02-04T08:35:40.862Z,100.00
2023-02-04T08:38:07.779Z,100.00
2023-02-04T08:40:34.862Z,100.00
2023-02-04T08:43:01.761Z,100.00
2023-02-04T08:45:28.679Z,100.00
2023-02-04T08:47:55.619Z,100.00
2023-02-04T08:50:22.508Z,100.00
2023-02-04T08:52:49.401Z,100.00
2023-02-04T08:55:16.352Z,100.00
2023-02-04T08:57:43.266Z,100.00
2023-02-04T09:00:12.241Z,100.00
2023-02-04T09:02:39.168Z,100.00
2023-02-04T09:05:06.646Z,100.00
2023-02-04T09:07:33.580Z,100.00
2023-02-04T09:10:00.544Z,100.00
2023-02-04T09:12:27.459Z,100.00
2023-02-04T09:14:54.391Z,100.00
2023-02-04T09:17:21.328Z,100.00
2023-02-04T09:19:48.198Z,100.00
2023-02-04T09:22:15.388Z,100.00
2023-02-04T09:24:42.282Z,100.00
2023-02-04T09:27:09.305Z,100.00
2023-02-04T09:29:36.208Z,100.00
2023-02-04T09:32:03.137Z,100.00
2023-02-04T09:34:30.065Z,100.00
2023-02-04T09:36:57.020Z,100.00
2023-02-04T09:39:23.889Z,100.00
2023-02-04T09:41:53.875Z,100.00
2023-02-04T09:44:25.183Z,100.00
2023-02-04T09:46:56.341Z,100.00
2023-02-04T09:49:23.755Z,100.00
2023-02-04T09:51:51.284Z,100.00
2023-02-04T09:54:22.852Z,100.00
2023-02-04T09:56:50.751Z,100.00
2023-02-04T09:59:23.675Z,100.00
2023-02-04T10:01:58.104Z,100.00
2023-02-04T10:04:25.317Z,100.00
2023-02-04T10:06:52.335Z,100.00
2023-02-04T10:09:19.575Z,100.00
2023-02-04T10:11:48.735Z,100.00
2023-02-04T10:14:21.708Z,100.00
2023-02-04T10:16:59.365Z,100.00
2023-02-04T10:19:28.860Z,100.00
2023-02-04T10:21:56.821Z,100.00
2023-02-04T10:24:26.717Z,100.00
2023-02-04T10:26:54.590Z,100.00
2023-02-04T10:29:25.779Z,100.00
2023-02-04T10:31:53.359Z,100.00
2023-02-04T10:34:40.054Z,100.00
2023-02-04T10:37:27.521Z,100.00
2023-02-04T10:39:54.686Z,100.00
2023-02-04T10:42:30.696Z,100.00
2023-02-04T10:44:58.550Z,100.00
2023-02-04T10:47:30.796Z,100.00
2023-02-04T10:50:19.300Z,100.00
2023-02-04T10:53:15.716Z,100.00
2023-02-04T10:55:46.838Z,100.00
2023-02-04T10:58:27.127Z,100.00
2023-02-04T11:00:54.388Z,100.00
2023-02-04T11:03:32.933Z,100.00
2023-02-04T11:06:01.397Z,100.00
2023-02-04T11:08:33.717Z,100.00
2023-02-04T11:11:17.099Z,100.00
2023-02-04T11:13:49.641Z,100.00
2023-02-04T11:16:26.243Z,100.00
2023-02-04T11:18:56.897Z,100.00
2023-02-04T11:21:41.559Z,100.00
2023-02-04T11:24:14.248Z,100.00
2023-02-04T11:26:47.608Z,100.00
2023-02-04T11:29:25.606Z,100.00
2023-02-04T11:31:52.502Z,100.00
2023-02-04T11:34:19.518Z,100.00
2023-02-04T11:37:09.104Z,100.00
2023-02-04T11:39:38.321Z,100.00
2023-02-04T11:42:25.169Z,100.00
2023-02-04T11:45:13.047Z,100.00
2023-02-04T11:47:40.649Z,100.00
2023-02-04T11:50:30.616Z,100.00
2023-02-04T11:53:02.021Z,100.00
2023-02-04T11:55:31.760Z,100.00
2023-02-04T11:57:58.895Z,73.67
2023-02-04T12:00:34.601Z,74.32
2023-02-04T12:03:21.352Z,73.74
2023-02-04T12:05:49.657Z,74.60
2023-02-04T12:08:22.275Z,75.28
2023-02-04T12:11:05.322Z,75.60
2023-02-04T12:13:33.288Z,75.88
2023-02-04T12:16:06.133Z,77.42
2023-02-04T12:18:35.253Z,78.12
2023-02-04T12:21:04.329Z,77.95
2023-02-04T12:23:31.648Z,76.91
2023-02-04T12:25:58.967Z,76.47
2023-02-04T12:28:27.985Z,75.09
2023-02-04T12:30:56.002Z,74.18
2023-02-04T12:33:23.263Z,72.96
2023-02-04T12:35:50.381Z,73.25
2023-02-04T12:38:18.373Z,72.74
2023-02-04T12:40:46.364Z,71.97
2023-02-04T12:43:13.258Z,71.33
2023-02-04T12:45:45.479Z,71.74
2023-02-04T12:48:13.922Z,71.72
2023-02-04T12:50:41.265Z,71.18
2023-02-04T12:53:08.902Z,70.96
2023-02-04T12:55:47.275Z,70.01
2023-02-04T12:58:14.302Z,70.24
2023-02-04T13:00:42.194Z,70.95
2023-02-04T13:03:09.099Z,71.22
2023-02-04T13:05:36.090Z,71.69
2023-02-04T13:08:03.013Z,72.03
2023-02-04T13:10:29.899Z,68.93
2023-02-04T13:12:56.815Z,69.61
2023-02-04T13:15:23.762Z,69.79
2023-02-04T13:17:50.728Z,70.91
2023-02-04T13:20:18.231Z,71.23
2023-02-04T13:22:45.159Z,71.81
2023-02-04T13:25:12.108Z,71.99
2023-02-04T13:27:39.525Z,72.17
2023-02-04T13:30:08.940Z,72.58
2023-02-04T13:32:35.897Z,72.70
2023-02-04T13:35:02.829Z,72.19
2023-02-04T13:37:29.693Z,72.30
2023-02-04T13:39:56.652Z,72.03
2023-02-04T13:42:23.598Z,71.48
2023-02-04T13:44:50.478Z,72.27
2023-02-04T13:47:17.418Z,72.95
2023-02-04T13:49:44.287Z,73.30
2023-02-04T13:52:11.215Z,73.52
2023-02-04T13:54:38.082Z,74.49
2023-02-04T13:57:05.598Z,74.81
2023-02-04T13:59:32.537Z,73.95
2023-02-04T14:01:59.513Z,74.31
2023-02-04T14:04:27.076Z,74.56
2023-02-04T14:06:55.056Z,74.42
2023-02-04T14:09:22.525Z,74.19
2023-02-04T14:11:49.410Z,75.39
2023-02-04T14:14:16.334Z,74.68
2023-02-04T14:16:43.317Z,74.64
2023-02-04T14:19:10.242Z,74.70
2023-02-04T14:21:37.271Z,75.36
2023-02-04T14:24:04.289Z,75.63
2023-02-04T14:26:31.225Z,75.80
2023-02-04T14:28:58.101Z,76.30
2023-02-04T14:31:24.974Z,74.93
2023-02-04T14:33:51.917Z,74.33
2023-02-04T14:36:18.932Z,74.04
2023-02-04T14:38:45.776Z,74.30
2023-02-04T14:41:16.193Z,74.04
2023-02-04T14:43:43.172Z,75.34
2023-02-04T14:46:10.192Z,75.92
2023-02-04T14:48:37.109Z,76.32
2023-02-04T14:51:04.690Z,76.44
2023-02-04T14:53:31.790Z,77.30
2023-02-04T14:55:58.691Z,78.30
2023-02-04T14:58:27.845Z,78.75
2023-02-04T15:00:55.549Z,77.57
2023-02-04T15:03:22.932Z,77.95
2023-02-04T15:05:49.818Z,78.48
2023-02-04T15:08:16.735Z,78.78
2023-02-04T15:10:43.606Z,78.82
2023-02-04T15:13:11.209Z,79.05
2023-02-04T15:15:38.163Z,80.30
2023-02-04T15:18:05.127Z,80.19
2023-02-04T15:20:32.273Z,81.03
2023-02-04T15:23:00.785Z,80.40
2023-02-04T15:25:27.982Z,80.70
2023-02-04T15:27:54.990Z,80.72
2023-02-04T15:30:21.921Z,81.61
2023-02-04T15:32:48.871Z,82.66
2023-02-04T15:35:15.779Z,83.32
2023-02-04T15:37:42.662Z,83.68
2023-02-04T15:40:10.744Z,83.86
2023-02-04T15:42:37.667Z,83.79
2023-02-04T15:45:05.414Z,83.33
2023-02-04T15:47:32.401Z,84.01
2023-02-04T15:49:59.387Z,84.38
2023-02-04T15:52:27.864Z,85.29
2023-02-04T15:54:56.036Z,85.51
2023-02-04T15:57:22.910Z,85.25
2023-02-04T15:59:49.803Z,86.29
2023-02-04T16:02:16.729Z,86.92
2023-02-04T16:04:45.222Z,86.84
2023-02-04T16:07:12.424Z,86.86
2023-02-04T16:09:39.466Z,87.73
2023-02-04T16:12:06.575Z,88.00
2023-02-04T16:14:33.493Z,88.12
2023-02-04T16:17:01.699Z,88.93
2023-02-04T16:19:29.149Z,88.57
2023-02-04T16:21:56.305Z,89.67
2023-02-04T16:24:23.235Z,89.46
2023-02-04T16:26:50.152Z,89.75
2023-02-04T16:29:17.321Z,89.23
2023-02-04T16:31:44.335Z,89.41
2023-02-04T16:34:11.289Z,89.84
2023-02-04T16:36:38.179Z,90.21
2023-02-04T16:39:05.053Z,90.39
2023-02-04T16:41:31.984Z,91.03
2023-02-04T16:44:00.072Z,91.10
2023-02-04T16:46:28.646Z,91.52
2023-02-04T16:48:55.644Z,91.44
2023-02-04T16:51:22.552Z,92.44
2023-02-04T16:53:50.375Z,92.42
2023-02-04T16:56:17.467Z,93.66
2023-02-04T16:58:45.547Z,93.53
2023-02-04T17:01:12.497Z,94.07
2023-02-04T17:03:39.845Z,94.34
2023-02-04T17:06:07.046Z,94.38
2023-02-04T17:08:34.019Z,94.93
2023-02-04T17:11:19.565Z,95.08
2023-02-04T17:13:46.508Z,95.50
2023-02-04T17:16:13.600Z,96.69
2023-02-04T17:18:40.517Z,97.41
2023-02-04T17:21:07.435Z,97.95
2023-02-04T17:23:35.372Z,98.12
2023-02-04T17:26:02.647Z,98.44
2023-02-04T17:28:29.563Z,98.32
2023-02-04T17:30:56.610Z,99.06
2023-02-04T17:33:23.630Z,99.55
2023-02-04T17:35:50.548Z,98.95
2023-02-04T17:38:17.467Z,99.59
2023-02-04T17:40:44.441Z,98.70
2023-02-04T17:43:11.352Z,99.01
2023-02-04T17:45:38.428Z,99.53
2023-02-04T17:48:05.487Z,98.97
2023-02-04T17:53:04.462Z,99.73
2023-02-04T17:55:33.943Z,99.68
2023-02-04T17:58:24.098Z,100.00
2023-02-04T18:00:53.223Z,99.92
2023-02-04T18:03:23.534Z,100.00
2023-02-04T18:05:54.489Z,100.00
2023-02-04T18:08:25.399Z,100.00
2023-02-04T18:10:55.137Z,99.92
2023-02-04T18:13:32.851Z,99.84
2023-02-04T18:16:08.128Z,100.00
2023-02-04T18:18:40.531Z,100.00
2023-02-04T18:21:28.178Z,100.00
2023-02-04T18:24:39.749Z,100.00
2023-02-04T18:27:18.012Z,100.00
2023-02-04T18:29:49.594Z,100.00
2023-02-04T18:32:37.304Z,100.00
2023-02-04T18:35:20.855Z,100.00
2023-02-04T18:37:51.146Z,100.00
2023-02-04T18:40:30.382Z,100.00
2023-02-04T18:43:13.995Z,100.00
2023-02-04T18:45:41.145Z,100.00
2023-02-04T18:48:19.899Z,100.00
2023-02-04T18:50:52.359Z,100.00
2023-02-04T18:53:28.777Z,100.00
2023-02-04T18:55:58.547Z,100.00
2023-02-04T18:58:37.579Z,100.00
2023-02-04T19:01:16.932Z,100.00
2023-02-04T19:03:53.639Z,100.00
2023-02-04T19:06:37.565Z,100.00
2023-02-04T19:09:10.404Z,100.00
2023-02-04T19:11:45.069Z,100.00
2023-02-04T19:14:31.161Z,100.00
2023-02-04T19:17:29.156Z,100.00
2023-02-04T19:20:01.921Z,100.00
2023-02-04T19:22:47.786Z,100.00
2023-02-04T19:25:35.787Z,100.00
2023-02-04T19:28:28.818Z,100.00
2023-02-04T19:31:01.857Z,100.00
2023-02-04T19:33:42.453Z,100.00
2023-02-04T19:36:30.246Z,100.00
2023-02-04T19:39:07.143Z,100.00
2023-02-04T19:41:46.999Z,100.00
2023-02-04T19:44:13.943Z,100.00
2023-02-04T19:46:41.986Z,100.00
2023-02-04T19:49:25.698Z,100.00
2023-02-04T19:51:58.474Z,100.00
2023-02-04T19:54:43.153Z,100.00
2023-02-04T19:57:25.507Z,100.00
2023-02-04T19:59:56.712Z,100.00
2023-02-04T20:02:36.523Z,100.00
2023-02-04T20:05:17.433Z,100.00
2023-02-04T20:07:44.318Z,100.00
2023-02-04T20:10:11.058Z,100.00
2023-02-04T20:12:40.718Z,100.00
2023-02-04T20:15:18.932Z,100.00
2023-02-04T20:17:48.345Z,100.00
2023-02-04T20:20:15.218Z,100.00
2023-02-04T20:22:54.470Z,100.00
2023-02-04T20:25:21.633Z,100.00
2023-02-04T20:27:58.255Z,100.00
2023-02-04T20:30:31.020Z,100.00
2023-02-04T20:33:19.822Z,100.00
2023-02-04T20:35:52.456Z,100.00
2023-02-04T20:38:20.425Z,100.00
2023-02-04T20:40:47.650Z,100.00
2023-02-04T20:43:19.792Z,100.00
2023-02-04T20:45:57.095Z,100.00
2023-02-04T20:48:43.978Z,100.00
2023-02-04T20:51:23.931Z,100.00
2023-02-04T20:53:53.094Z,100.00
2023-02-04T20:56:35.512Z,100.00
2023-02-04T20:59:24.875Z,100.00
2023-02-04T21:01:51.847Z,100.00
2023-02-04T21:04:34.415Z,100.00
2023-02-04T21:07:12.363Z,100.00
2023-02-04T21:09:40.123Z,100.00
2023-02-04T21:12:07.348Z,100.00
2023-02-04T21:14:34.564Z,100.00
2023-02-04T21:17:01.756Z,100.00
2023-02-04T21:19:28.776Z,100.00
2023-02-04T21:21:57.404Z,100.00
2023-02-04T21:24:26.244Z,100.00
2023-02-04T21:26:53.637Z,100.00
2023-02-04T21:29:20.542Z,100.00
2023-02-04T21:31:47.476Z,100.00
2023-02-04T21:34:15.675Z,100.00
2023-02-04T21:36:42.579Z,100.00
2023-02-04T21:39:09.458Z,100.00
2023-02-04T21:41:36.349Z,100.00
2023-02-04T21:44:03.699Z,100.00
2023-02-04T21:46:30.598Z,100.00
2023-02-04T21:48:57.526Z,100.00
2023-02-04T21:51:24.477Z,100.00
2023-02-04T21:53:51.362Z,100.00
2023-02-04T21:56:18.269Z,100.00
2023-02-04T21:58:45.157Z,100.00
2023-02-04T22:01:12.052Z,100.00
2023-02-04T22:03:38.965Z,100.00
2023-02-04T22:06:06.241Z,100.00
2023-02-04T22:08:33.176Z,100.00
2023-02-04T22:11:00.596Z,100.00
2023-02-04T22:13:27.533Z,100.00
2023-02-04T22:15:54.540Z,100.00
2023-02-04T22:18:21.642Z,100.00
2023-02-04T22:20:48.631Z,100.00
2023-02-04T22:23:16.578Z,100.00
2023-02-04T22:25:43.640Z,100.00
2023-02-04T22:28:10.611Z,100.00
2023-02-04T22:30:37.988Z,100.00
2023-02-04T22:33:05.143Z,100.00
2023-02-04T22:35:35.024Z,100.00
2023-02-04T22:38:03.261Z,100.00
2023-02-04T22:40:30.408Z,100.00
2023-02-04T22:42:57.461Z,100.00
2023-02-04T22:45:24.395Z,100.00
2023-02-04T22:47:51.257Z,100.00
2023-02-04T22:50:18.225Z,100.00
2023-02-04T22:52:45.127Z,100.00
2023-02-04T22:55:12.096Z,100.00
2023-02-04T22:57:39.046Z,100.00
2023-02-04T23:00:09.261Z,100.00
2023-02-04T23:02:36.302Z,100.00
2023-02-04T23:05:03.540Z,100.00
2023-02-04T23:07:31.210Z,100.00
2023-02-04T23:09:58.146Z,100.00
2023-02-04T23:12:25.283Z,100.00
2023-02-04T23:14:52.188Z,100.00
2023-02-04T23:17:19.101Z,100.00
2023-02-04T23:19:46.354Z,100.00
2023-02-04T23:22:14.503Z,100.00
2023-02-04T23:24:42.048Z,100.00
2023-02-04T23:27:11.219Z,100.00
2023-02-04T23:29:39.813Z,100.00
2023-02-04T23:32:07.611Z,100.00
2023-02-04T23:34:35.231Z,100.00
2023-02-04T23:37:02.393Z,100.00
2023-02-04T23:39:29.361Z,100.00
2023-02-04T23:41:56.705Z,100.00
2023-02-04T23:44:23.614Z,100.00
2023-02-04T23:46:50.546Z,100.00
2023-02-04T23:49:17.496Z,100.00
2023-02-04T23:51:44.460Z,100.00
2023-02-04T23:54:12.013Z,100.00
2023-02-04T23:56:38.989Z,100.00
2023-02-04T23:59:06.155Z,100.00
